CST,Max TemperatureF,Mean TemperatureF,Min TemperatureF,Max Dew PointF,MeanDew PointF,Min DewpointF,Max Humidity, Mean Humidity, Min Humidity, Max Sea Level PressureIn, Mean Sea Level PressureIn, Min Sea Level PressureIn, Max VisibilityMiles, Mean VisibilityMiles, Min VisibilityMiles, Max Wind SpeedMPH, Mean Wind SpeedMPH, Max Gust SpeedMPH,PrecipitationIn, CloudCover, Events, WindDirDegrees
2014-1-1,49,37,25,39,32,24,92,76,60,30.28,30.12,29.95,10,10,10,16,6,20,T,3,Rain,184
2014-1-2,47,34,20,39,22,11,83,65,47,30.51,30.20,29.93,10,9,2,22,11,30,0.02,4,Rain-Snow,328
2014-1-3,31,23,14,19,14,10,88,69,50,30.56,30.42,30.22,10,10,10,14,6,20,0.00,0,,146
2014-1-4,45,35,25,35,24,18,75,60,45,30.21,30.07,29.91,10,10,10,23,13,28,0.00,4,,173
2014-1-5,50,33,15,49,43,32,100,85,70,30.38,29.93,29.68,10,8,2,26,16,35,0.39,7,Rain-Snow,289
2014-1-6,14,11,7,7,-6,-8,91,67,42,30.65,30.56,30.40,10,10,10,22,12,30,0.00,0,,311
2014-1-7,29,17,4,14,5,-6,76,58,40,30.61,30.50,30.38,10,10,10,22,10,29,0.00,0,,197
2014-1-8,36,27,17,27,20,13,78,63,47,30.47,30.42,30.38,10,10,9,12,4,14,0.05,6,Rain,109
2014-1-9,35,34,32,34,30,27,100,89,78,30.41,30.30,30.19,10,5,1,14,5,18,0.24,8,Rain,116
2014-1-10,52,43,34,48,42,32,100,93,85,30.18,29.86,29.64,10,6,1,16,7,23,1.40,8,Rain,166
2014-1-11,52,45,37,47,36,30,93,74,54,30.02,29.85,29.67,10,10,10,18,8,25,0.01,1,,269
2014-1-12,59,44,29,40,35,27,92,70,47,30.09,29.97,29.83,10,10,10,23,9,30,0.00,0,,184
2014-1-13,62,50,38,52,41,28,89,63,37,29.94,29.82,29.74,10,10,10,24,11,32,0.00,3,,240
2014-1-14,55,44,32,34,27,14,75,54,33,30.14,29.98,29.89,10,10,10,20,8,24,T,2,,284
2014-1-15,39,31,23,16,13,9,68,51,34,30.25,30.19,30.10,10,10,10,18,7,25,0.00,0,,316
2014-1-16,55,41,26,32,24,20,75,54,32,30.09,29.93,29.80,10,10,10,22,11,30,0.00,4,,233
2014-1-17,41,31,20,24,12,7,55,42,29,30.20,30.11,29.93,10,10,10,25,11,33,0.00,1,,296
2014-1-18,56,37,18,28,21,10,74,52,30,30.17,29.96,29.76,10,10,10,36,12,44,0.00,3,,238
2014-1-19,48,38,28,29,24,19,69,57,45,30.21,30.08,29.96,10,10,10,17,10,23,0.00,0,,252
2014-1-20,60,49,38,35,29,26,73,51,29,29.98,29.92,29.85,10,10,10,16,6,25,0.00,0,,255
2014-1-21,47,34,20,26,13,5,68,54,39,30.32,30.21,29.97,10,10,10,25,11,36,0.00,2,,356
2014-1-22,41,30,18,20,15,9,74,56,38,30.26,30.20,30.09,10,10,10,17,7,22,0.00,1,,195
2014-1-23,33,23,12,12,-1,-7,50,39,28,30.81,30.62,30.27,10,10,10,20,8,25,T,1,,4
2014-1-24,30,18,5,10,3,-4,76,55,34,30.79,30.49,30.06,10,10,10,23,11,30,0.00,0,,212
2014-1-25,57,42,27,27,19,7,69,50,30,30.03,29.95,29.89,10,10,10,23,11,30,0.00,3,,271
2014-1-26,61,43,24,36,30,19,81,60,39,29.97,29.80,29.69,10,10,10,25,10,37,0.00,0,,221
2014-1-27,46,33,20,33,2,-9,73,48,22,30.45,30.27,29.83,10,10,10,23,12,32,0.00,4,,11
2014-1-28,25,17,8,2,-3,-8,73,49,25,30.53,30.47,30.41,10,10,10,18,7,24,0.00,3,,22
2014-1-29,36,21,6,11,6,0,88,57,26,30.48,30.39,30.27,10,10,10,16,6,20,0.00,0,,195
2014-1-30,43,31,19,13,10,6,67,45,22,30.27,30.11,29.99,10,10,10,28,12,35,0.00,1,,183
2014-1-31,42,36,29,39,32,14,93,67,41,30.08,30.01,29.94,10,6,2,12,5,14,0.01,8,Rain,97